Home   Weather   Austria   Vienna   Past weeks
Flag for Austria

Past Weather in Vienna, Vienna, Austria — Yesterday and Last 2 Weeks

Currently: 48 °F. Passing clouds. (Weather station: Vienna Schwechat-Flughafen Airport, Austria). See more current weather

Past Weather in Vienna — Graph

°F

Vienna Temperature Yesterday

Maximum temperature yesterday: 52 °F (at 10:20 am)
Minimum temperature yesterday: 43 °F (at 10:20 pm)
Average temperature yesterday: 48 °F

High & Low Weather Summary for the Past Weeks

 TemperatureHumidityPressure
High59 °F (Feb 29, 2:20 pm)100% (Feb 17, 7:50 pm)30.54 "Hg (Feb 17, 7:50 pm)
Low36 °F (Feb 17, 4:20 am)41% (Feb 26, 2:50 pm)29.42 "Hg (Feb 22, 11:20 pm)
Average47 °F75%29.96 "Hg
* Reported Feb 16 5:20 pm — Mar 2 5:50 pm, Vienna. Weather by CustomWeather, © 2024

Note: Actual official high and low records may vary slightly from our data, if they occured in-between our weather recording intervals... More about our weather records

Vienna Weather History for the Previous 24 Hours

Scroll right to see more
 ConditionsComfort  
Time TempWeatherWind HumidityBarometerVisibility
5:50 pm
Sat, Mar 2
48 °FPassing clouds.13 mph87%29.80 "Hg6 mi
5:20 pm50 °FScattered clouds.12 mph82%29.80 "HgN/A
4:50 pm50 °FPassing clouds.13 mph88%29.80 "HgN/A
4:20 pm50 °FPassing clouds.14 mph88%29.77 "Hg6 mi
3:50 pm52 °FPassing clouds.16 mph77%29.80 "Hg6 mi
3:20 pm52 °FPassing clouds.17 mph82%29.80 "Hg6 mi
1:50 pm52 °FPassing clouds.15 mph82%29.80 "HgN/A
1:20 pm50 °FPassing clouds.15 mph88%29.80 "Hg6 mi
12:50 pm50 °FScattered clouds.14 mph88%29.80 "Hg4 mi
12:20 pm50 °FScattered clouds.13 mph88%29.80 "Hg4 mi
11:50 am50 °FPassing clouds.10 mph82%29.80 "Hg4 mi
11:20 am50 °FPassing clouds.9 mph88%29.80 "Hg4 mi
10:50 am48 °FFog.10 mph87%29.80 "Hg3 mi
10:20 am46 °FFog.12 mph93%29.80 "Hg2 mi
9:50 am46 °FFog.10 mph93%29.80 "Hg2 mi
9:20 am46 °FFog.12 mph93%29.80 "Hg2 mi
8:50 am45 °FFog.9 mph100%29.80 "Hg2 mi
8:20 am45 °FFog.9 mph93%29.80 "Hg2 mi
7:50 am43 °FQuite cool.9 mph100%29.80 "Hg1 mi
7:20 am43 °FFog.8 mph100%29.80 "Hg0 mi
6:50 am43 °FFog.9 mph100%29.80 "Hg1 mi
6:20 am43 °FPassing clouds.8 mph93%29.77 "Hg1 mi
5:50 am39 °FChilly.1 mph100%29.77 "Hg1 mi
5:20 am41 °FPassing clouds.3 mph100%29.77 "Hg0 mi
4:50 am41 °FFog.5 mph93%29.77 "Hg0 mi
4:20 am39 °FPassing clouds.3 mph100%29.77 "Hg0 mi
3:50 am41 °FSnow. Overcast.5 mph93%29.77 "Hg1 mi
3:20 am41 °FQuite cool.6 mph93%29.77 "Hg1 mi
2:50 am39 °FChilly.7 mph100%29.77 "Hg1 mi
2:20 am41 °FQuite cool.3 mph93%29.77 "Hg2 mi
1:50 am43 °FQuite cool.8 mph93%29.77 "Hg3 mi
1:20 am45 °FFog.9 mph93%29.77 "Hg2 mi
12:50 am45 °FFog.7 mph93%29.77 "Hg2 mi
12:20 am45 °FFog.5 mph93%29.77 "Hg2 mi
11:50 pm
Fri, Mar 1
43 °FFog.3 mph100%29.77 "Hg2 mi
11:20 pm45 °FFog.6 mph93%29.77 "Hg3 mi
10:50 pm43 °FFog.7 mph93%29.77 "Hg3 mi
10:20 pm43 °FFog.6 mph93%29.80 "Hg3 mi
9:50 pm45 °FPassing clouds.5 mph93%29.80 "Hg4 mi
9:20 pm46 °FPassing clouds.6 mph87%29.77 "Hg4 mi
8:50 pm48 °FPassing clouds.5 mph87%29.77 "Hg4 mi
8:20 pm48 °FPassing clouds.7 mph87%29.77 "Hg5 mi
7:50 pm48 °FPartly cloudy.7 mph87%29.77 "Hg5 mi
7:20 pm50 °FPassing clouds.6 mph88%29.80 "Hg6 mi
Weather by CustomWeather, © 2024

See weather overview